createdAt,value
2022-07-29T00:02:25.654Z,17.41
2022-07-29T00:04:52.335Z,17.36
2022-07-29T00:07:19.008Z,17.34
2022-07-29T00:09:50.843Z,17.28
2022-07-29T00:12:21.443Z,17.45
2022-07-29T00:14:54.307Z,17.31
2022-07-29T00:17:20.853Z,17.24
2022-07-29T00:19:47.584Z,17.30
2022-07-29T00:22:14.185Z,17.13
2022-07-29T00:24:40.706Z,17.21
2022-07-29T00:27:07.535Z,17.15
2022-07-29T00:29:35.620Z,17.04
2022-07-29T00:32:03.505Z,17.06
2022-07-29T00:34:49.229Z,17.02
2022-07-29T00:37:15.775Z,16.97
2022-07-29T00:39:42.375Z,16.96
2022-07-29T00:42:09.224Z,16.97
2022-07-29T00:44:43.013Z,17.00
2022-07-29T00:47:11.508Z,16.87
2022-07-29T00:49:40.601Z,17.02
2022-07-29T00:52:08.776Z,17.02
2022-07-29T00:54:44.638Z,17.00
2022-07-29T00:57:12.613Z,16.90
2022-07-29T00:59:39.370Z,16.97
2022-07-29T01:02:06.139Z,16.84
2022-07-29T01:04:33.225Z,16.88
2022-07-29T01:07:02.087Z,16.86
2022-07-29T01:09:45.745Z,16.83
2022-07-29T01:12:18.396Z,16.83
2022-07-29T01:14:46.830Z,16.79
2022-07-29T01:17:21.719Z,16.72
2022-07-29T01:19:52.842Z,16.67
2022-07-29T01:22:42.155Z,16.56
2022-07-29T01:25:46.837Z,16.55
2022-07-29T01:28:52.111Z,16.52
2022-07-29T01:31:26.716Z,16.48
2022-07-29T01:34:00.199Z,16.55
2022-07-29T01:36:47.418Z,16.55
2022-07-29T01:39:28.332Z,16.46
2022-07-29T01:42:24.477Z,16.56
2022-07-29T01:45:00.189Z,16.51
2022-07-29T01:47:36.882Z,16.45
2022-07-29T01:50:08.340Z,16.48
2022-07-29T01:52:44.313Z,16.49
2022-07-29T01:55:15.412Z,16.29
2022-07-29T01:57:46.578Z,16.33
2022-07-29T02:00:14.115Z,16.35
2022-07-29T02:02:44.575Z,16.35
2022-07-29T02:05:15.754Z,16.32
2022-07-29T02:07:44.109Z,16.30
2022-07-29T02:10:13.403Z,16.19
2022-07-29T02:12:43.437Z,16.28
2022-07-29T02:15:17.677Z,16.32
2022-07-29T02:17:55.171Z,16.42
2022-07-29T02:20:25.820Z,16.26
2022-07-29T02:22:54.127Z,16.22
2022-07-29T02:25:23.235Z,16.28
2022-07-29T02:27:52.560Z,16.30
2022-07-29T02:30:22.766Z,16.21
2022-07-29T02:32:50.616Z,16.15
2022-07-29T02:35:18.079Z,16.15
2022-07-29T02:38:06.548Z,16.17
2022-07-29T02:40:37.395Z,16.07
2022-07-29T02:43:07.461Z,16.05
2022-07-29T02:45:37.582Z,16.01
2022-07-29T02:48:14.432Z,16.04
2022-07-29T02:50:51.233Z,15.98
2022-07-29T02:53:25.190Z,16.00
2022-07-29T02:56:01.052Z,16.05
2022-07-29T02:58:39.036Z,15.94
2022-07-29T03:01:15.690Z,15.91
2022-07-29T03:03:47.355Z,15.87
2022-07-29T03:06:28.023Z,15.79
2022-07-29T03:09:05.029Z,15.83
2022-07-29T03:11:46.242Z,15.80
2022-07-29T03:14:19.154Z,15.74
2022-07-29T03:16:46.644Z,15.70
2022-07-29T03:19:14.055Z,15.77
2022-07-29T03:21:40.728Z,15.70
2022-07-29T03:24:10.481Z,15.67
2022-07-29T03:26:38.682Z,15.66
2022-07-29T03:29:05.271Z,15.66
2022-07-29T03:31:33.387Z,15.59
2022-07-29T03:34:00.402Z,15.59
2022-07-29T03:36:27.095Z,15.60
2022-07-29T03:38:54.119Z,15.53
2022-07-29T03:41:23.245Z,15.52
2022-07-29T03:43:52.727Z,15.52
2022-07-29T03:46:23.476Z,15.47
2022-07-29T03:48:53.908Z,15.46
2022-07-29T03:51:33.309Z,15.46
2022-07-29T03:54:06.359Z,15.47
2022-07-29T03:56:40.677Z,15.49
2022-07-29T03:59:08.182Z,15.47
2022-07-29T04:01:35.770Z,15.40
2022-07-29T04:04:04.237Z,15.43
2022-07-29T04:06:40.141Z,15.57
2022-07-29T04:09:06.980Z,15.56
2022-07-29T04:12:02.124Z,15.46
2022-07-29T04:14:25.820Z,15.47
2022-07-29T04:16:53.918Z,15.52
2022-07-29T04:19:20.477Z,15.49
2022-07-29T04:21:47.058Z,15.61
2022-07-29T04:24:14.180Z,15.60
2022-07-29T04:26:41.020Z,15.77
2022-07-29T04:29:07.639Z,15.52
2022-07-29T04:31:34.378Z,15.49
2022-07-29T04:34:01.026Z,15.53
2022-07-29T04:36:29.578Z,15.54
2022-07-29T04:38:56.848Z,15.63
2022-07-29T04:41:23.450Z,15.70
2022-07-29T04:44:02.194Z,15.77
2022-07-29T04:46:29.148Z,15.74
2022-07-29T04:48:56.026Z,15.90
2022-07-29T04:51:22.739Z,15.91
2022-07-29T04:53:49.287Z,15.79
2022-07-29T04:56:15.865Z,15.84
2022-07-29T04:58:42.450Z,16.00
2022-07-29T05:01:09.164Z,16.12
2022-07-29T05:03:35.838Z,16.04
2022-07-29T05:06:02.458Z,15.94
2022-07-29T05:08:29.116Z,15.96
2022-07-29T05:10:55.668Z,15.96
2022-07-29T05:13:22.264Z,16.09
2022-07-29T05:15:49.142Z,16.25
2022-07-29T05:18:15.741Z,16.14
2022-07-29T05:20:42.336Z,16.14
2022-07-29T05:23:08.879Z,16.15
2022-07-29T05:25:43.689Z,16.22
2022-07-29T05:28:12.051Z,16.19
2022-07-29T05:30:40.130Z,16.35
2022-07-29T05:33:06.741Z,16.42
2022-07-29T05:35:33.438Z,16.55
2022-07-29T05:37:59.983Z,16.48
2022-07-29T05:40:26.530Z,16.24
2022-07-29T05:42:53.270Z,16.55
2022-07-29T05:45:19.841Z,16.39
2022-07-29T05:47:46.574Z,16.39
2022-07-29T05:50:13.342Z,16.39
2022-07-29T05:52:40.123Z,16.56
2022-07-29T05:55:07.006Z,16.44
2022-07-29T05:57:33.723Z,16.51
2022-07-29T06:00:00.442Z,16.41
2022-07-29T06:02:27.240Z,16.67
2022-07-29T06:04:54.012Z,16.69
2022-07-29T06:07:20.938Z,16.83
2022-07-29T06:09:47.578Z,16.87
2022-07-29T06:12:14.190Z,16.97
2022-07-29T06:14:41.151Z,16.91
2022-07-29T06:17:07.980Z,17.24
2022-07-29T06:19:38.877Z,17.46
2022-07-29T06:22:05.853Z,17.92
2022-07-29T06:24:32.537Z,18.34
2022-07-29T06:26:59.621Z,18.37
2022-07-29T06:29:26.209Z,18.04
2022-07-29T06:31:52.763Z,17.89
2022-07-29T06:34:20.212Z,17.82
2022-07-29T06:36:47.595Z,17.82
2022-07-29T06:39:15.701Z,17.65
2022-07-29T06:41:42.508Z,17.64
2022-07-29T06:44:09.139Z,17.66
2022-07-29T06:46:35.757Z,17.94
2022-07-29T06:49:03.374Z,18.10
2022-07-29T06:51:30.536Z,17.82
2022-07-29T06:54:02.412Z,18.03
2022-07-29T06:56:32.440Z,18.14
2022-07-29T06:59:06.518Z,18.06
2022-07-29T07:01:33.186Z,18.04
2022-07-29T07:04:00.146Z,18.27
2022-07-29T07:06:27.042Z,18.20
2022-07-29T07:08:53.643Z,18.00
2022-07-29T07:11:20.304Z,18.12
2022-07-29T07:13:46.932Z,18.37
2022-07-29T07:16:13.549Z,18.68
2022-07-29T07:18:40.726Z,18.51
2022-07-29T07:21:07.476Z,18.68
2022-07-29T07:23:34.070Z,18.29
2022-07-29T07:26:00.675Z,18.33
2022-07-29T07:28:27.218Z,18.68
2022-07-29T07:30:53.859Z,19.56
2022-07-29T07:33:20.515Z,19.46
2022-07-29T07:35:47.645Z,19.81
2022-07-29T07:38:14.464Z,20.84
2022-07-29T07:40:41.738Z,20.91
2022-07-29T07:43:08.356Z,21.32
2022-07-29T07:45:35.508Z,21.55
2022-07-29T07:48:02.156Z,21.92
2022-07-29T07:50:28.770Z,21.59
2022-07-29T07:52:59.289Z,21.72
2022-07-29T07:55:26.950Z,22.22
2022-07-29T07:57:54.517Z,22.22
2022-07-29T08:00:23.003Z,22.41
2022-07-29T08:02:51.903Z,22.84
2022-07-29T08:05:18.999Z,23.39
2022-07-29T08:07:50.732Z,23.37
2022-07-29T08:10:41.444Z,23.91
2022-07-29T08:13:09.893Z,23.49
2022-07-29T08:15:36.943Z,24.18
2022-07-29T08:18:08.493Z,23.47
2022-07-29T08:20:36.767Z,23.81
2022-07-29T08:23:05.397Z,23.44
2022-07-29T08:25:32.096Z,23.67
2022-07-29T08:28:00.157Z,24.39
2022-07-29T08:30:26.772Z,24.61
2022-07-29T08:32:55.179Z,24.80
2022-07-29T08:35:24.532Z,24.40
2022-07-29T08:37:53.186Z,23.22
2022-07-29T08:40:32.013Z,24.44
2022-07-29T08:43:00.669Z,24.81
2022-07-29T08:45:29.117Z,25.66
2022-07-29T08:47:56.674Z,25.96
2022-07-29T08:50:23.379Z,24.06
2022-07-29T08:52:57.936Z,24.91
2022-07-29T08:55:26.641Z,26.20
2022-07-29T08:57:54.347Z,26.16
2022-07-29T09:00:25.585Z,24.49
2022-07-29T09:02:59.320Z,25.85
2022-07-29T09:05:27.572Z,25.75
2022-07-29T09:07:54.631Z,24.42
2022-07-29T09:10:21.546Z,25.98
2022-07-29T09:12:52.417Z,27.06
2022-07-29T09:15:19.639Z,26.31
2022-07-29T09:17:51.451Z,27.14
2022-07-29T09:20:20.196Z,26.98
2022-07-29T09:22:52.541Z,26.79
2022-07-29T09:25:39.297Z,26.06
2022-07-29T09:28:10.836Z,25.83
2022-07-29T09:30:53.317Z,27.26
2022-07-29T09:33:20.634Z,27.09
2022-07-29T09:35:56.543Z,27.46
2022-07-29T09:38:23.738Z,28.23
2022-07-29T09:41:06.084Z,27.40
2022-07-29T09:43:33.737Z,27.65
2022-07-29T09:46:14.363Z,28.26
2022-07-29T09:48:42.397Z,27.76
2022-07-29T09:51:27.026Z,28.47
2022-07-29T09:54:23.580Z,27.69
2022-07-29T09:56:53.849Z,29.00
2022-07-29T09:59:27.402Z,29.35
2022-07-29T10:01:55.020Z,28.95
2022-07-29T10:04:22.080Z,29.38
2022-07-29T10:07:04.694Z,29.04
2022-07-29T10:09:32.977Z,29.16
2022-07-29T10:12:15.377Z,29.03
2022-07-29T10:14:43.549Z,29.53
2022-07-29T10:17:12.525Z,29.33
2022-07-29T10:19:42.444Z,29.76
2022-07-29T10:22:10.621Z,29.87
2022-07-29T10:24:38.841Z,29.87
2022-07-29T10:27:07.911Z,30.20
2022-07-29T10:29:35.135Z,28.78
2022-07-29T10:32:07.840Z,29.91
2022-07-29T10:35:13.350Z,29.83
2022-07-29T10:37:46.164Z,30.03
2022-07-29T10:40:43.905Z,30.88
2022-07-29T10:43:27.135Z,31.23
2022-07-29T10:45:59.313Z,30.88
2022-07-29T10:48:26.345Z,30.85
2022-07-29T10:50:56.114Z,30.76
2022-07-29T10:53:24.760Z,30.99
2022-07-29T10:55:54.746Z,30.04
2022-07-29T10:58:26.335Z,30.38
2022-07-29T11:00:54.933Z,31.19
2022-07-29T11:03:50.875Z,29.48
2022-07-29T11:06:26.682Z,29.38
2022-07-29T11:09:34.864Z,30.59
2022-07-29T11:12:04.967Z,31.10
2022-07-29T11:15:09.220Z,29.08
2022-07-29T11:18:01.417Z,31.43
2022-07-29T11:20:45.919Z,31.22
2022-07-29T11:23:40.306Z,31.19
2022-07-29T11:29:06.680Z,34.48
2022-07-29T11:31:36.010Z,35.91
2022-07-29T11:34:23.742Z,36.63
2022-07-29T11:37:10.385Z,37.24
2022-07-29T11:39:45.000Z,37.72
2022-07-29T11:42:28.457Z,38.16
2022-07-29T11:48:27.827Z,38.73
2022-07-29T11:50:52.831Z,38.77
2022-07-29T11:53:19.661Z,39.12
2022-07-29T11:55:54.237Z,39.10
2022-07-29T11:58:25.095Z,39.10
2022-07-29T12:00:53.270Z,39.15
2022-07-29T12:03:35.349Z,39.37
2022-07-29T12:06:04.603Z,39.28
2022-07-29T12:07:02.021Z,38.46
2022-07-29T12:08:42.880Z,38.98
2022-07-29T12:11:17.686Z,38.95
2022-07-29T12:13:49.233Z,39.26
2022-07-29T12:16:25.819Z,39.11
2022-07-29T12:19:04.644Z,38.92
2022-07-29T12:22:01.025Z,38.92
2022-07-29T12:24:45.399Z,39.00
2022-07-29T12:27:13.060Z,39.00
2022-07-29T12:29:42.008Z,38.78
2022-07-29T12:32:19.722Z,38.74
2022-07-29T12:34:46.938Z,39.05
2022-07-29T12:37:13.689Z,39.17
2022-07-29T12:39:40.902Z,38.98
2022-07-29T12:42:18.795Z,39.18
2022-07-29T12:44:54.629Z,39.19
2022-07-29T12:47:22.100Z,39.43
2022-07-29T12:50:07.985Z,38.97
2022-07-29T12:52:35.827Z,39.10
2022-07-29T12:55:02.965Z,38.88
2022-07-29T12:57:30.319Z,38.95
2022-07-29T13:00:10.363Z,39.18
2022-07-29T13:02:39.360Z,39.22
2022-07-29T13:05:07.695Z,39.05
2022-07-29T13:07:55.724Z,38.88
2022-07-29T13:10:24.885Z,39.17
2022-07-29T13:13:11.388Z,39.12
2022-07-29T13:15:43.482Z,38.81
2022-07-29T13:18:33.489Z,38.43
2022-07-29T13:21:12.968Z,38.57
2022-07-29T13:23:39.899Z,38.50
2022-07-29T13:26:08.434Z,38.44
2022-07-29T13:28:35.286Z,38.23
2022-07-29T13:31:02.308Z,37.72
2022-07-29T13:33:28.909Z,37.75
2022-07-29T13:35:55.479Z,37.79
2022-07-29T13:38:21.980Z,37.78
2022-07-29T13:40:58.373Z,37.60
2022-07-29T13:43:25.032Z,37.20
2022-07-29T13:45:54.955Z,37.30
2022-07-29T13:48:21.798Z,37.21
2022-07-29T13:50:51.568Z,37.19
2022-07-29T13:53:18.246Z,37.28
2022-07-29T13:55:45.241Z,37.21
2022-07-29T13:58:11.811Z,37.30
2022-07-29T14:00:38.335Z,37.23
2022-07-29T14:03:05.060Z,37.01
2022-07-29T14:05:31.613Z,37.13
2022-07-29T14:07:58.203Z,37.17
2022-07-29T14:10:24.814Z,37.06
2022-07-29T14:12:51.739Z,37.00
2022-07-29T14:15:18.368Z,37.06
2022-07-29T14:17:45.609Z,36.89
2022-07-29T14:20:12.276Z,36.76
2022-07-29T14:22:42.317Z,36.65
2022-07-29T14:25:14.497Z,36.29
2022-07-29T14:27:42.849Z,36.11
2022-07-29T14:30:10.125Z,36.08
2022-07-29T14:32:36.682Z,35.95
2022-07-29T14:35:03.813Z,35.80
2022-07-29T14:37:39.364Z,35.72
2022-07-29T14:40:08.398Z,35.63
2022-07-29T14:42:35.079Z,35.33
2022-07-29T14:45:01.665Z,35.36
2022-07-29T14:47:28.407Z,35.12
2022-07-29T14:49:55.001Z,35.03
2022-07-29T14:52:21.788Z,34.98
2022-07-29T14:54:55.662Z,34.91
2022-07-29T14:57:22.254Z,34.88
2022-07-29T14:59:51.553Z,34.70
2022-07-29T15:02:18.198Z,34.58
2022-07-29T15:04:47.303Z,34.61
2022-07-29T15:07:13.892Z,34.54
2022-07-29T15:09:49.809Z,34.36
2022-07-29T15:12:19.312Z,34.14
2022-07-29T15:14:46.125Z,33.96
2022-07-29T15:17:14.074Z,33.90
2022-07-29T15:19:44.961Z,33.86
2022-07-29T15:22:11.789Z,33.69
2022-07-29T15:24:38.398Z,33.21
2022-07-29T15:27:05.183Z,32.97
2022-07-29T15:29:31.746Z,32.39
2022-07-29T15:31:58.507Z,32.02
2022-07-29T15:34:25.476Z,31.74
2022-07-29T15:36:53.980Z,31.44
2022-07-29T15:39:22.347Z,31.41
2022-07-29T15:41:53.427Z,31.47
2022-07-29T15:44:21.048Z,31.70
2022-07-29T15:47:03.556Z,31.74
2022-07-29T15:49:47.497Z,31.82
2022-07-29T15:52:25.676Z,31.50
2022-07-29T15:54:57.606Z,31.22
2022-07-29T15:57:24.947Z,30.93
2022-07-29T15:59:53.308Z,30.71
2022-07-29T16:02:20.004Z,30.49
2022-07-29T16:04:47.285Z,30.31
2022-07-29T16:07:31.292Z,30.18
2022-07-29T16:09:59.297Z,30.03
2022-07-29T16:12:25.880Z,30.04
2022-07-29T16:14:53.155Z,30.04
2022-07-29T16:17:21.304Z,29.94
2022-07-29T16:19:51.627Z,29.87
2022-07-29T16:22:18.286Z,29.82
2022-07-29T16:24:51.788Z,29.66
2022-07-29T16:27:27.042Z,29.56
2022-07-29T16:30:02.252Z,29.42
2022-07-29T16:32:28.864Z,29.31
2022-07-29T16:34:55.377Z,29.31
2022-07-29T16:37:22.334Z,29.18
2022-07-29T16:39:52.088Z,29.05
2022-07-29T16:42:36.896Z,28.93
2022-07-29T16:45:05.617Z,28.81
2022-07-29T16:47:32.386Z,28.61
2022-07-29T16:49:58.928Z,28.52
2022-07-29T16:52:25.815Z,28.40
2022-07-29T16:54:53.395Z,28.33
2022-07-29T16:57:27.876Z,28.12
2022-07-29T16:59:54.417Z,28.04
2022-07-29T17:02:21.046Z,27.06
2022-07-29T17:04:47.687Z,26.33
2022-07-29T17:07:14.925Z,25.96
2022-07-29T17:09:41.618Z,25.62
2022-07-29T17:12:08.558Z,25.65
2022-07-29T17:14:35.118Z,25.58
2022-07-29T17:17:03.008Z,25.48
2022-07-29T17:19:32.492Z,25.18
2022-07-29T17:22:08.404Z,25.28
2022-07-29T17:24:35.913Z,25.19
2022-07-29T17:27:02.488Z,25.10
2022-07-29T17:29:31.497Z,24.95
2022-07-29T17:31:59.570Z,24.87
2022-07-29T17:34:26.420Z,24.92
2022-07-29T17:36:56.734Z,24.94
2022-07-29T17:39:24.071Z,24.97
2022-07-29T17:41:54.020Z,24.86
2022-07-29T17:44:20.748Z,24.84
2022-07-29T17:46:47.760Z,24.73
2022-07-29T17:49:14.553Z,24.53
2022-07-29T17:51:41.493Z,24.70
2022-07-29T17:54:08.064Z,24.63
2022-07-29T17:56:34.681Z,24.23
2022-07-29T17:59:06.362Z,24.28
2022-07-29T18:01:33.873Z,24.12
2022-07-29T18:04:00.563Z,24.08
2022-07-29T18:06:27.272Z,24.21
2022-07-29T18:08:54.244Z,24.25
2022-07-29T18:11:21.596Z,24.28
2022-07-29T18:13:51.247Z,24.43
2022-07-29T18:16:18.615Z,24.33
2022-07-29T18:18:45.527Z,24.28
2022-07-29T18:21:12.805Z,24.15
2022-07-29T18:23:39.435Z,24.21
2022-07-29T18:26:05.986Z,23.94
2022-07-29T18:28:32.832Z,23.73
2022-07-29T18:31:00.663Z,23.53
2022-07-29T18:33:27.842Z,23.53
2022-07-29T18:36:11.282Z,23.39
2022-07-29T18:38:42.164Z,23.39
2022-07-29T18:41:08.768Z,23.36
2022-07-29T18:43:35.536Z,23.34
2022-07-29T18:46:02.590Z,23.26
2022-07-29T18:48:29.198Z,23.16
2022-07-29T18:50:55.770Z,22.99
2022-07-29T18:53:22.327Z,22.89
2022-07-29T18:55:51.458Z,23.00
2022-07-29T18:58:18.008Z,22.89
2022-07-29T19:00:45.298Z,22.81
2022-07-29T19:03:11.998Z,22.79
2022-07-29T19:05:38.700Z,22.75
2022-07-29T19:08:06.409Z,22.72
2022-07-29T19:10:33.001Z,22.59
2022-07-29T19:12:59.603Z,22.59
2022-07-29T19:15:26.343Z,22.43
2022-07-29T19:17:54.748Z,22.43
2022-07-29T19:20:24.325Z,22.37
2022-07-29T19:22:50.988Z,22.38
2022-07-29T19:25:19.534Z,22.27
2022-07-29T19:27:48.286Z,22.33
2022-07-29T19:30:17.338Z,22.21
2022-07-29T19:32:43.926Z,21.94
2022-07-29T19:35:28.460Z,21.90
2022-07-29T19:37:56.518Z,21.92
2022-07-29T19:40:23.388Z,21.75
2022-07-29T19:42:51.687Z,21.83
2022-07-29T19:45:21.577Z,21.76
2022-07-29T19:47:52.461Z,21.46
2022-07-29T19:50:19.681Z,21.45
2022-07-29T19:52:47.549Z,21.25
2022-07-29T19:55:15.086Z,21.12
2022-07-29T19:57:42.009Z,21.17
2022-07-29T20:00:11.092Z,21.12
2022-07-29T20:02:39.340Z,21.10
2022-07-29T20:05:07.288Z,20.94
2022-07-29T20:07:34.303Z,20.79
2022-07-29T20:10:01.165Z,20.66
2022-07-29T20:12:28.278Z,20.63
2022-07-29T20:14:54.896Z,20.64
2022-07-29T20:17:22.419Z,20.54
2022-07-29T20:19:53.275Z,20.52
2022-07-29T20:22:21.191Z,20.60
2022-07-29T20:24:53.784Z,20.33
2022-07-29T20:27:20.750Z,20.28
2022-07-29T20:29:47.845Z,20.24
2022-07-29T20:32:14.591Z,20.14
2022-07-29T20:34:41.498Z,20.15
2022-07-29T20:37:13.336Z,20.02
2022-07-29T20:39:41.282Z,19.88
2022-07-29T20:42:08.005Z,19.91
2022-07-29T20:44:34.927Z,19.85
2022-07-29T20:47:03.225Z,19.84
2022-07-29T20:49:30.137Z,19.71
2022-07-29T20:51:56.921Z,19.57
2022-07-29T20:54:23.623Z,19.67
2022-07-29T20:56:52.082Z,19.58
2022-07-29T20:59:18.774Z,19.50
2022-07-29T21:01:46.069Z,19.58
2022-07-29T21:04:12.821Z,19.40
2022-07-29T21:06:39.365Z,19.50
2022-07-29T21:09:05.968Z,19.33
2022-07-29T21:11:44.292Z,19.51
2022-07-29T21:14:22.449Z,19.39
2022-07-29T21:16:53.495Z,19.36
2022-07-29T21:19:20.075Z,19.27
2022-07-29T21:21:46.605Z,19.40
2022-07-29T21:24:13.147Z,19.41
2022-07-29T21:26:39.700Z,19.12
2022-07-29T21:29:06.627Z,19.23
2022-07-29T21:31:33.355Z,19.16
2022-07-29T21:33:59.860Z,19.16
2022-07-29T21:36:47.669Z,19.24
2022-07-29T21:39:12.899Z,18.99
2022-07-29T21:41:39.509Z,19.15
2022-07-29T21:44:06.054Z,19.12
2022-07-29T21:46:32.653Z,18.95
2022-07-29T21:48:59.309Z,18.94
2022-07-29T21:51:25.936Z,18.92
2022-07-29T21:53:53.339Z,18.96
2022-07-29T21:56:20.037Z,18.94
2022-07-29T21:58:49.412Z,18.95
2022-07-29T22:01:15.968Z,18.87
2022-07-29T22:03:42.586Z,18.82
2022-07-29T22:06:09.125Z,18.72
2022-07-29T22:08:45.782Z,18.67
2022-07-29T22:11:13.014Z,18.65
2022-07-29T22:13:39.581Z,18.84
2022-07-29T22:16:06.623Z,18.88
2022-07-29T22:18:33.204Z,18.87
2022-07-29T22:20:59.753Z,18.60
2022-07-29T22:23:26.319Z,18.69
2022-07-29T22:25:53.383Z,18.62
2022-07-29T22:28:19.928Z,18.50
2022-07-29T22:30:46.634Z,18.65
2022-07-29T22:33:16.902Z,18.52
2022-07-29T22:35:44.721Z,18.60
2022-07-29T22:38:12.281Z,18.51
2022-07-29T22:40:38.927Z,18.51
2022-07-29T22:43:06.399Z,18.43
2022-07-29T22:45:33.293Z,18.41
2022-07-29T22:47:59.882Z,18.24
2022-07-29T22:50:29.770Z,18.30
2022-07-29T22:52:56.760Z,18.38
2022-07-29T22:55:23.351Z,18.33
2022-07-29T22:57:56.187Z,18.23
2022-07-29T23:00:22.813Z,18.10
2022-07-29T23:02:55.860Z,18.14
2022-07-29T23:05:22.774Z,18.07
2022-07-29T23:07:53.419Z,18.00
2022-07-29T23:10:23.288Z,18.04
2022-07-29T23:12:54.141Z,18.04
2022-07-29T23:15:20.894Z,18.04
2022-07-29T23:17:52.325Z,17.93
2022-07-29T23:20:19.162Z,18.03
2022-07-29T23:22:45.803Z,17.96
2022-07-29T23:25:12.440Z,17.99
2022-07-29T23:27:39.011Z,17.93
2022-07-29T23:30:06.168Z,17.85
2022-07-29T23:32:33.249Z,17.85
2022-07-29T23:34:59.828Z,17.78
2022-07-29T23:37:27.067Z,17.76
2022-07-29T23:39:55.895Z,17.62
2022-07-29T23:42:22.709Z,17.64
2022-07-29T23:44:56.712Z,17.71
2022-07-29T23:47:23.276Z,17.59
2022-07-29T23:49:52.988Z,17.62
2022-07-29T23:52:19.538Z,17.59
2022-07-29T23:54:46.248Z,17.58
2022-07-29T23:57:13.094Z,17.49
2022-07-29T23:59:39.724Z,17.46
